Time;durP1;ratioP1;P1;durP2;ratioP2;P2;SDS_P1;SDS_P2;PMS_P1;PMS_P2;Temp;Humidity;BMP_temperature;BMP_pressure;BME280_temperature;BME280_humidity;BME280_pressure;Samples;Min_cycle;Max_cycle;Signal;HPM_P1;HPM_P2
2021/05/26 00:01:23;;;;;;;8.02;6.70;;;15.10;78.50;;;;;;5053160;28;20032;-67
2021/05/26 00:03:50;;;;;;;10.57;6.97;;;15.10;78.60;;;;;;5053461;28;20031;-69
2021/05/26 00:06:16;;;;;;;9.57;6.25;;;15.10;78.80;;;;;;5052283;28;20454;-68
2021/05/26 00:08:41;;;;;;;8.65;6.45;;;15.10;79.10;;;;;;5051370;28;20025;-69
2021/05/26 00:11:10;;;;;;;8.57;6.28;;;15.10;78.90;;;;;;5056309;28;20474;-69
2021/05/26 00:13:36;;;;;;;9.88;7.13;;;15.10;78.90;;;;;;5058115;28;20090;-69
2021/05/26 00:16:05;;;;;;;12.60;6.65;;;15.00;78.90;;;;;;5052059;28;20052;-68
2021/05/26 00:18:32;;;;;;;9.52;6.88;;;15.10;79.00;;;;;;5050651;28;20127;-69
2021/05/26 00:20:58;;;;;;;9.60;6.97;;;15.10;79.00;;;;;;5037701;28;20044;-69
2021/05/26 00:23:23;;;;;;;11.77;7.05;;;15.00;79.00;;;;;;5034906;28;20035;-68
2021/05/26 00:25:49;;;;;;;10.23;6.95;;;15.00;79.00;;;;;;5049590;28;20581;-69
2021/05/26 00:28:16;;;;;;;9.82;6.90;;;15.00;79.00;;;;;;5052127;28;20070;-69
2021/05/26 00:30:48;;;;;;;7.97;5.95;;;15.00;79.20;;;;;;5053057;28;20021;-69
2021/05/26 00:33:14;;;;;;;6.68;5.20;;;15.00;79.20;;;;;;5054493;28;20494;-71
2021/05/26 00:35:40;;;;;;;7.85;5.28;;;15.00;79.30;;;;;;5042879;28;20060;-69
2021/05/26 00:38:06;;;;;;;6.25;5.13;;;15.00;79.40;;;;;;5049784;28;20028;-69
2021/05/26 00:40:32;;;;;;;6.65;4.85;;;15.00;80.20;;;;;;5052999;28;20040;-69
2021/05/26 00:42:58;;;;;;;6.05;4.95;;;15.00;79.50;;;;;;5061135;28;20029;-69
2021/05/26 00:45:23;;;;;;;7.70;6.05;;;15.00;79.60;;;;;;5053297;28;20024;-69
2021/05/26 00:47:50;;;;;;;6.20;5.00;;;15.00;80.00;;;;;;5052890;28;20031;-69
2021/05/26 00:50:21;;;;;;;7.45;6.53;;;14.90;79.80;;;;;;5046341;28;20040;-68
2021/05/26 00:52:47;;;;;;;7.60;5.72;;;14.90;79.90;;;;;;5053211;28;20108;-67
2021/05/26 00:55:18;;;;;;;8.73;5.43;;;14.90;79.90;;;;;;5053421;28;20120;-68
2021/05/26 00:57:46;;;;;;;8.02;5.30;;;14.90;79.90;;;;;;5052870;28;20021;-67
2021/05/26 01:00:13;;;;;;;6.57;5.43;;;14.90;80.00;;;;;;5053163;28;20028;-68
2021/05/26 01:02:39;;;;;;;6.70;5.65;;;14.80;79.80;;;;;;5047522;28;20063;-73
2021/05/26 01:05:06;;;;;;;8.52;5.70;;;14.80;79.80;;;;;;5047454;28;20119;-73
2021/05/26 01:07:32;;;;;;;8.55;6.82;;;14.70;79.80;;;;;;5034486;28;20029;-73
2021/05/26 01:09:58;;;;;;;7.38;6.15;;;14.70;80.10;;;;;;5051375;28;20485;-74
2021/05/26 01:12:25;;;;;;;8.35;6.80;;;14.60;80.20;;;;;;5053092;28;20032;-74
2021/05/26 01:14:51;;;;;;;8.45;6.07;;;14.60;80.30;;;;;;5052780;28;20074;-73
2021/05/26 01:17:17;;;;;;;8.40;6.90;;;14.50;80.40;;;;;;5053316;28;20085;-73
2021/05/26 01:19:42;;;;;;;9.02;6.43;;;14.50;80.60;;;;;;5052771;28;20419;-72
2021/05/26 01:22:08;;;;;;;9.32;6.82;;;14.50;80.60;;;;;;5034553;28;20171;-73
2021/05/26 01:24:35;;;;;;;10.38;8.43;;;14.40;80.70;;;;;;5027967;28;20038;-73
2021/05/26 01:27:01;;;;;;;10.73;8.40;;;14.40;81.20;;;;;;5032444;28;20089;-73
2021/05/26 01:29:27;;;;;;;8.95;8.05;;;14.40;81.40;;;;;;5041410;28;20024;-74
2021/05/26 01:31:53;;;;;;;13.88;10.23;;;14.30;81.30;;;;;;5032905;28;20025;-68
2021/05/26 01:34:20;;;;;;;14.98;10.55;;;14.30;81.40;;;;;;5030960;28;20033;-68
2021/05/26 01:36:46;;;;;;;12.23;9.93;;;14.30;81.50;;;;;;5030365;28;22114;-67
2021/05/26 01:39:13;;;;;;;11.88;9.90;;;14.20;81.50;;;;;;5032032;28;20037;-69
2021/05/26 01:41:39;;;;;;;11.63;9.80;;;14.20;81.40;;;;;;5019626;28;20029;-67
2021/05/26 01:44:05;;;;;;;13.07;8.85;;;14.20;81.50;;;;;;5035232;28;20048;-67
2021/05/26 01:46:30;;;;;;;11.82;8.40;;;14.20;81.60;;;;;;5034313;28;20406;-67
2021/05/26 01:48:57;;;;;;;11.85;8.23;;;14.10;81.70;;;;;;5034249;28;20088;-68
2021/05/26 01:51:23;;;;;;;11.95;9.45;;;14.10;81.60;;;;;;5041050;28;20035;-68
2021/05/26 01:53:51;;;;;;;12.60;8.73;;;14.10;81.70;;;;;;5044258;28;20021;-67
2021/05/26 01:56:25;;;;;;;9.82;8.23;;;14.00;81.80;;;;;;5018073;28;20028;-68
2021/05/26 01:58:54;;;;;;;11.82;9.27;;;14.00;81.80;;;;;;5025742;28;20112;-68
2021/05/26 02:01:21;;;;;;;11.27;8.45;;;14.00;82.00;;;;;;5035236;28;20107;-67
2021/05/26 02:03:48;;;;;;;13.70;8.90;;;13.90;82.10;;;;;;5027006;28;20148;-68
2021/05/26 02:06:16;;;;;;;11.50;9.18;;;13.90;82.30;;;;;;5040737;28;20028;-68
2021/05/26 02:08:42;;;;;;;12.68;9.20;;;13.90;82.50;;;;;;5037940;28;20025;-67
2021/05/26 02:13:57;;;;;;;10.75;9.00;;;13.90;82.60;;;;;;5052406;28;20032;-68
2021/05/26 02:16:23;;;;;;;11.82;9.35;;;13.90;82.70;;;;;;5041943;28;20032;-68
2021/05/26 02:18:49;;;;;;;12.88;8.55;;;13.80;82.80;;;;;;5035874;28;20443;-67
2021/05/26 02:21:15;;;;;;;10.55;8.27;;;13.90;82.80;;;;;;5014802;28;20047;-68
2021/05/26 02:23:40;;;;;;;11.25;8.02;;;13.90;82.90;;;;;;5027133;28;20096;-68
2021/05/26 02:26:06;;;;;;;10.70;8.00;;;13.90;83.10;;;;;;5016988;28;20022;-68
2021/05/26 02:28:32;;;;;;;12.25;7.90;;;13.90;83.30;;;;;;5041122;28;20037;-68
2021/05/26 02:30:57;;;;;;;11.15;8.20;;;13.90;83.20;;;;;;5037957;28;20336;-68
2021/05/26 02:33:23;;;;;;;11.60;8.57;;;14.00;83.40;;;;;;5021862;28;20017;-68
2021/05/26 02:35:49;;;;;;;12.32;7.45;;;14.00;83.50;;;;;;5048653;28;20033;-68
2021/05/26 02:38:15;;;;;;;10.02;7.72;;;14.00;83.60;;;;;;5033557;28;20025;-68
2021/05/26 02:40:40;;;;;;;11.13;6.78;;;14.10;83.70;;;;;;5036124;28;20390;-68
2021/05/26 02:43:07;;;;;;;11.55;8.35;;;14.10;83.70;;;;;;5036293;28;20030;-67
2021/05/26 02:45:33;;;;;;;12.88;8.43;;;14.20;83.90;;;;;;5034695;28;20043;-68
2021/05/26 02:47:59;;;;;;;10.32;7.53;;;14.30;84.30;;;;;;5035642;28;20049;-68
2021/05/26 02:50:25;;;;;;;9.65;7.30;;;14.30;84.30;;;;;;5032903;28;20546;-67
2021/05/26 02:52:51;;;;;;;10.60;7.28;;;14.40;84.50;;;;;;5035480;28;20147;-67
2021/05/26 02:55:22;;;;;;;8.07;7.20;;;14.40;84.40;;;;;;5037531;28;20021;-68
2021/05/26 02:57:48;;;;;;;9.32;7.20;;;14.50;85.00;;;;;;5035647;28;20030;-67
2021/05/26 03:00:16;;;;;;;9.30;6.60;;;14.60;85.00;;;;;;5033438;28;20443;-68
2021/05/26 03:02:42;;;;;;;8.55;6.35;;;14.70;84.90;;;;;;5025888;28;20080;-68
2021/05/26 03:05:09;;;;;;;8.95;6.03;;;14.80;84.80;;;;;;5022688;28;20034;-68
2021/05/26 03:07:35;;;;;;;7.18;5.20;;;14.90;84.60;;;;;;5031153;28;20049;-68
2021/05/26 03:10:01;;;;;;;8.07;5.78;;;15.10;84.40;;;;;;5033722;28;20101;-67
2021/05/26 03:12:26;;;;;;;7.40;6.10;;;15.20;84.30;;;;;;5017159;28;20033;-68
2021/05/26 03:14:53;;;;;;;7.30;5.80;;;15.30;84.20;;;;;;5037594;28;20036;-68
2021/05/26 03:17:18;;;;;;;8.65;6.68;;;15.40;83.90;;;;;;5035551;28;20021;-68
2021/05/26 03:19:44;;;;;;;9.48;6.88;;;15.50;83.60;;;;;;5020601;28;20079;-68
2021/05/26 03:22:10;;;;;;;8.93;7.35;;;15.60;83.50;;;;;;5053038;28;20047;-67
2021/05/26 03:24:36;;;;;;;8.40;7.07;;;15.70;83.20;;;;;;5053817;28;20512;-68
2021/05/26 03:27:01;;;;;;;11.23;7.57;;;15.70;83.00;;;;;;5033953;28;20033;-69
2021/05/26 03:29:27;;;;;;;11.20;8.05;;;15.80;82.80;;;;;;5063545;28;20029;-68
2021/05/26 03:31:53;;;;;;;10.05;7.78;;;15.80;82.60;;;;;;5053601;28;20045;-71
2021/05/26 03:34:23;;;;;;;9.60;8.50;;;15.90;82.50;;;;;;5063357;28;20016;-68
2021/05/26 03:36:49;;;;;;;11.00;8.70;;;16.00;82.30;;;;;;5056380;28;20032;-67
2021/05/26 03:39:15;;;;;;;10.55;8.75;;;16.10;82.10;;;;;;5052432;28;20024;-68
2021/05/26 03:41:41;;;;;;;11.45;8.88;;;16.20;81.90;;;;;;5035469;28;20390;-67
2021/05/26 03:44:08;;;;;;;12.40;9.32;;;16.20;81.70;;;;;;5059006;28;20017;-68
2021/05/26 03:46:34;;;;;;;12.30;10.05;;;16.30;81.50;;;;;;5057372;28;20033;-67
2021/05/26 03:49:00;;;;;;;12.00;9.90;;;16.40;81.30;;;;;;5061973;28;20028;-68
2021/05/26 03:51:26;;;;;;;10.70;9.48;;;16.40;81.10;;;;;;5057339;28;20017;-68
2021/05/26 03:53:53;;;;;;;13.93;9.10;;;16.50;80.90;;;;;;5052512;28;20082;-68
2021/05/26 03:56:19;;;;;;;9.93;8.30;;;16.60;80.90;;;;;;5053187;28;20021;-68
2021/05/26 03:58:44;;;;;;;12.15;7.72;;;16.60;80.90;;;;;;5045839;28;20043;-68
2021/05/26 04:01:10;;;;;;;11.95;7.47;;;16.80;80.90;;;;;;5052459;28;20389;-68
2021/05/26 04:03:36;;;;;;;8.27;7.03;;;16.90;80.60;;;;;;5035243;28;20021;-68
2021/05/26 04:06:01;;;;;;;9.52;6.00;;;17.00;80.60;;;;;;5052663;28;20018;-68
2021/05/26 04:08:28;;;;;;;7.65;6.20;;;17.10;80.40;;;;;;5047943;28;20023;-68
2021/05/26 04:10:53;;;;;;;7.32;5.40;;;17.20;80.20;;;;;;5051994;28;20029;-71
2021/05/26 04:13:19;;;;;;;7.13;5.53;;;17.30;80.10;;;;;;5067441;28;20035;-68
2021/05/26 04:15:45;;;;;;;9.02;6.00;;;17.40;79.70;;;;;;5051215;28;20020;-70
2021/05/26 04:18:10;;;;;;;14.27;9.77;;;17.60;79.60;;;;;;5050022;28;20029;-68
2021/05/26 04:20:36;;;;;;;12.38;9.10;;;17.70;79.20;;;;;;5052042;28;20041;-68
2021/05/26 04:23:02;;;;;;;18.05;12.45;;;17.80;78.90;;;;;;5047272;28;20065;-68
2021/05/26 04:25:28;;;;;;;24.00;15.13;;;17.90;78.60;;;;;;5037679;28;20074;-68
2021/05/26 04:27:54;;;;;;;21.58;14.88;;;18.00;78.40;;;;;;5051884;28;20017;-70
2021/05/26 04:30:20;;;;;;;22.02;16.25;;;18.10;78.20;;;;;;5048153;28;20028;-68
2021/05/26 04:32:46;;;;;;;16.48;13.52;;;18.10;77.90;;;;;;5043148;28;20033;-69
2021/05/26 04:35:13;;;;;;;17.77;14.02;;;18.30;77.60;;;;;;5054000;28;20032;-67
2021/05/26 04:37:38;;;;;;;20.92;14.07;;;18.40;77.50;;;;;;5048197;28;20040;-67
2021/05/26 04:40:05;;;;;;;18.50;14.23;;;18.50;77.50;;;;;;5043423;28;20021;-68
2021/05/26 04:42:31;;;;;;;22.23;16.55;;;18.50;77.10;;;;;;5052664;28;20037;-68
2021/05/26 04:44:57;;;;;;;20.73;14.65;;;18.60;76.90;;;;;;5052538;28;20027;-68
2021/05/26 04:47:22;;;;;;;16.65;10.57;;;18.80;76.70;;;;;;5053349;28;20417;-68
2021/05/26 04:49:48;;;;;;;15.13;10.23;;;18.80;76.40;;;;;;5037269;28;20025;-68
2021/05/26 04:52:14;;;;;;;11.23;9.02;;;18.90;76.30;;;;;;5050764;28;20035;-69
2021/05/26 04:54:40;;;;;;;12.82;8.23;;;19.00;76.00;;;;;;5054398;28;20032;-67
2021/05/26 04:57:06;;;;;;;11.25;7.95;;;19.10;75.50;;;;;;5046257;28;20083;-67
2021/05/26 04:59:31;;;;;;;8.13;7.13;;;19.20;75.60;;;;;;5039836;28;20028;-69
2021/05/26 05:01:57;;;;;;;9.30;6.95;;;19.30;75.60;;;;;;5051276;28;20036;-71
2021/05/26 05:04:23;;;;;;;8.95;6.68;;;19.40;75.10;;;;;;5030958;28;20025;-68
2021/05/26 05:06:49;;;;;;;8.73;7.25;;;19.60;74.40;;;;;;5041438;28;20359;-68
2021/05/26 05:09:14;;;;;;;8.55;6.82;;;19.70;74.00;;;;;;5052273;28;20020;-69
2021/05/26 05:11:40;;;;;;;7.93;6.68;;;19.80;74.00;;;;;;5062977;28;20024;-68
2021/05/26 05:14:06;;;;;;;14.10;7.63;;;19.80;73.90;;;;;;5068117;28;20458;-68
2021/05/26 05:16:32;;;;;;;13.13;10.00;;;20.00;73.10;;;;;;5052081;28;20724;-67
2021/05/26 05:18:58;;;;;;;10.50;8.77;;;20.00;72.30;;;;;;5031718;28;20061;-69
2021/05/26 05:21:24;;;;;;;11.85;8.38;;;20.10;72.20;;;;;;5040742;28;20085;-67
2021/05/26 05:23:50;;;;;;;12.73;9.02;;;20.10;71.10;;;;;;5043295;28;20732;-67
2021/05/26 05:26:16;;;;;;;13.88;9.73;;;20.20;70.60;;;;;;5047593;28;20021;-71
2021/05/26 05:28:42;;;;;;;14.90;11.13;;;20.30;70.60;;;;;;5024678;28;20036;-69
2021/05/26 05:31:08;;;;;;;12.48;9.55;;;20.30;68.80;;;;;;5027982;28;20025;-68
2021/05/26 05:33:33;;;;;;;8.98;8.05;;;20.40;67.80;;;;;;5052613;28;20036;-68
2021/05/26 05:35:59;;;;;;;7.70;5.38;;;20.50;66.10;;;;;;5052986;28;20118;-68
2021/05/26 05:38:25;;;;;;;7.53;4.88;;;20.50;64.20;;;;;;5030606;28;20167;-69
2021/05/26 05:40:50;;;;;;;5.93;4.40;;;20.60;63.30;;;;;;5050722;28;20029;-67
2021/05/26 05:43:16;;;;;;;8.10;4.65;;;20.60;62.50;;;;;;5047265;28;20079;-68
2021/05/26 05:45:43;;;;;;;6.75;3.90;;;20.60;63.30;;;;;;5048647;28;20029;-68
2021/05/26 05:48:09;;;;;;;7.65;4.22;;;20.70;63.10;;;;;;5051770;28;20025;-68
2021/05/26 05:50:35;;;;;;;8.68;5.63;;;20.80;62.60;;;;;;5048776;28;20356;-69
2021/05/26 05:53:01;;;;;;;11.88;7.07;;;20.90;61.60;;;;;;5026961;28;20348;-70
2021/05/26 05:55:27;;;;;;;6.93;5.25;;;21.00;61.90;;;;;;5051163;28;20031;-70
2021/05/26 05:58:00;;;;;;;5.25;3.53;;;21.10;62.50;;;;;;5050133;28;20025;-68
2021/05/26 06:00:26;;;;;;;4.13;3.22;;;21.20;59.40;;;;;;5025796;28;20806;-70
2021/05/26 06:02:52;;;;;;;8.48;4.40;;;21.30;59.50;;;;;;5049903;28;20168;-69
2021/05/26 06:05:18;;;;;;;8.18;5.60;;;21.40;58.20;;;;;;5024022;28;20120;-69
2021/05/26 06:07:43;;;;;;;7.22;4.90;;;21.40;56.80;;;;;;5050272;28;20111;-70
2021/05/26 06:10:10;;;;;;;5.63;4.78;;;21.50;57.40;;;;;;5038516;28;20033;-70
2021/05/26 06:12:35;;;;;;;7.30;4.15;;;21.50;57.70;;;;;;5042702;28;20481;-68
2021/05/26 06:15:02;;;;;;;4.72;3.85;;;21.50;58.00;;;;;;5034853;28;20080;-70
2021/05/26 06:17:28;;;;;;;9.55;4.25;;;21.60;57.30;;;;;;5017217;28;20043;-69
2021/05/26 06:19:54;;;;;;;7.32;5.55;;;21.70;56.40;;;;;;5015516;28;20045;-72
2021/05/26 06:22:19;;;;;;;7.47;4.93;;;21.80;56.30;;;;;;5025619;28;20923;-70
2021/05/26 06:24:45;;;;;;;18.33;10.82;;;21.80;57.10;;;;;;5016248;28;20025;-70
2021/05/26 06:27:11;;;;;;;20.92;11.50;;;21.90;57.10;;;;;;5028840;28;20722;-69
2021/05/26 06:29:36;;;;;;;32.25;16.50;;;21.90;57.80;;;;;;5027838;28;20382;-70
2021/05/26 06:32:02;;;;;;;30.70;17.90;;;22.00;58.50;;;;;;5023980;28;20060;-70
2021/05/26 06:34:28;;;;;;;37.17;20.70;;;22.10;59.00;;;;;;5023524;28;20088;-71
2021/05/26 06:36:54;;;;;;;33.97;19.73;;;22.20;59.20;;;;;;5014634;28;20029;-71
2021/05/26 06:39:19;;;;;;;30.13;17.30;;;22.30;59.50;;;;;;5030227;28;20045;-69
2021/05/26 06:41:45;;;;;;;20.58;12.50;;;22.30;59.30;;;;;;5035034;28;20039;-70
2021/05/26 06:44:11;;;;;;;20.63;12.25;;;22.40;59.00;;;;;;5032601;28;20532;-71
2021/05/26 06:46:38;;;;;;;32.97;16.08;;;22.50;59.40;;;;;;5032382;28;20110;-70
2021/05/26 06:49:04;;;;;;;36.33;19.67;;;22.50;58.60;;;;;;5034893;28;20116;-69
2021/05/26 06:51:30;;;;;;;22.40;12.65;;;22.60;58.40;;;;;;5039059;28;20040;-70
2021/05/26 06:53:56;;;;;;;11.55;7.05;;;22.60;58.20;;;;;;5017686;28;20037;-71
2021/05/26 06:56:22;;;;;;;5.93;5.32;;;22.70;57.70;;;;;;5031831;28;20025;-71
2021/05/26 06:58:48;;;;;;;5.88;5.28;;;22.70;57.80;;;;;;5012068;28;20056;-70
2021/05/26 07:01:13;;;;;;;6.03;5.10;;;22.70;57.90;;;;;;5022992;28;20033;-72
2021/05/26 07:03:39;;;;;;;5.88;4.93;;;22.80;58.30;;;;;;5026275;28;20037;-70
2021/05/26 07:06:05;;;;;;;6.00;5.03;;;22.90;57.70;;;;;;5025252;28;20033;-70
2021/05/26 07:08:31;;;;;;;7.20;4.70;;;22.90;57.50;;;;;;5011379;28;20103;-70
2021/05/26 07:10:57;;;;;;;5.55;4.72;;;23.00;57.30;;;;;;5031543;28;20052;-71
2021/05/26 07:13:23;;;;;;;7.60;5.20;;;23.10;57.20;;;;;;5031900;28;20038;-70
2021/05/26 07:15:48;;;;;;;5.60;4.55;;;23.10;57.40;;;;;;5030806;28;20033;-71
2021/05/26 07:18:14;;;;;;;5.25;4.25;;;23.10;57.00;;;;;;5009975;28;20029;-71
2021/05/26 07:20:43;;;;;;;5.95;4.80;;;23.10;57.30;;;;;;5021377;28;20489;-71
2021/05/26 07:23:10;;;;;;;5.82;4.85;;;23.20;57.50;;;;;;5033752;28;20108;-72
2021/05/26 07:25:35;;;;;;;6.43;5.35;;;23.30;57.20;;;;;;5028940;28;20158;-72
2021/05/26 07:28:01;;;;;;;9.00;5.93;;;23.40;57.30;;;;;;5013354;28;20128;-71
2021/05/26 07:30:27;;;;;;;6.60;5.68;;;23.50;56.70;;;;;;5014686;28;20037;-70
2021/05/26 07:32:53;;;;;;;6.80;5.38;;;23.60;56.60;;;;;;5016870;28;20033;-72
2021/05/26 07:35:19;;;;;;;5.90;5.30;;;23.60;56.70;;;;;;5024604;28;20032;-71
2021/05/26 07:37:44;;;;;;;7.25;5.35;;;23.70;57.00;;;;;;5023724;28;20453;-71
2021/05/26 07:40:12;;;;;;;7.97;5.95;;;23.70;57.00;;;;;;5025866;28;20033;-71
2021/05/26 07:42:38;;;;;;;7.35;5.82;;;23.80;56.70;;;;;;5033548;28;20036;-71
2021/05/26 07:45:06;;;;;;;7.55;5.43;;;23.70;56.50;;;;;;5000133;28;20104;-72
2021/05/26 07:47:32;;;;;;;7.57;5.22;;;23.70;57.40;;;;;;5013085;28;20032;-72
2021/05/26 07:49:58;;;;;;;7.68;6.80;;;23.80;57.80;;;;;;5019845;28;20036;-71
2021/05/26 07:52:26;;;;;;;14.60;6.20;;;23.90;57.20;;;;;;5004734;28;20691;-69
2021/05/26 07:54:52;;;;;;;7.53;5.78;;;24.00;57.30;;;;;;4997177;28;20053;-72
2021/05/26 07:57:18;;;;;;;6.90;6.20;;;24.00;56.80;;;;;;5002582;28;20575;-72
2021/05/26 07:59:44;;;;;;;9.70;7.78;;;24.00;56.70;;;;;;4998837;28;20056;-72
2021/05/26 08:02:12;;;;;;;10.32;6.78;;;24.00;57.30;;;;;;5002959;28;20024;-70
2021/05/26 08:04:38;;;;;;;6.57;5.45;;;24.20;57.80;;;;;;5022318;28;20872;-71
2021/05/26 08:07:05;;;;;;;5.75;5.15;;;24.30;56.80;;;;;;5020136;28;20049;-72
2021/05/26 08:09:30;;;;;;;6.82;5.80;;;24.50;56.90;;;;;;5024746;28;20049;-72
2021/05/26 08:11:56;;;;;;;7.32;5.38;;;24.70;57.00;;;;;;5028459;28;20108;-72
2021/05/26 08:14:22;;;;;;;7.00;5.65;;;24.90;55.00;;;;;;5002532;28;20794;-73
2021/05/26 08:16:50;;;;;;;9.77;6.72;;;25.10;54.40;;;;;;5024713;28;20115;-71
2021/05/26 08:19:16;;;;;;;6.82;5.50;;;25.20;54.40;;;;;;5009337;28;20032;-72
2021/05/26 08:21:42;;;;;;;6.82;5.55;;;25.20;53.90;;;;;;5027752;28;21816;-72
2021/05/26 08:24:09;;;;;;;7.50;5.97;;;25.20;53.90;;;;;;5019446;28;20083;-74
2021/05/26 08:26:35;;;;;;;9.23;5.72;;;25.00;53.60;;;;;;5027114;28;20116;-72
2021/05/26 08:29:03;;;;;;;9.02;5.65;;;24.90;54.00;;;;;;5019318;28;20076;-71
2021/05/26 08:31:29;;;;;;;5.63;4.90;;;24.80;54.40;;;;;;5004106;28;20040;-73
2021/05/26 08:33:55;;;;;;;6.55;5.20;;;24.80;54.40;;;;;;5023871;28;20025;-72
2021/05/26 08:36:20;;;;;;;8.35;6.10;;;25.00;54.70;;;;;;5002854;28;20037;-72
2021/05/26 08:38:46;;;;;;;7.50;5.35;;;25.10;53.90;;;;;;5023463;28;20112;-70
2021/05/26 08:41:12;;;;;;;11.43;6.72;;;25.20;53.70;;;;;;5031744;28;20079;-71
2021/05/26 08:43:41;;;;;;;9.43;6.78;;;25.20;54.00;;;;;;5019574;28;20034;-72
2021/05/26 08:46:08;;;;;;;9.13;6.32;;;25.40;53.40;;;;;;5020077;28;20030;-73
2021/05/26 08:48:34;;;;;;;7.43;5.57;;;25.50;53.70;;;;;;5020729;28;20112;-72
2021/05/26 08:51:02;;;;;;;7.80;4.97;;;25.60;52.40;;;;;;5028010;28;20037;-72
2021/05/26 08:53:28;;;;;;;6.03;5.15;;;25.80;52.00;;;;;;5025374;28;20554;-71
2021/05/26 08:55:56;;;;;;;5.32;4.80;;;25.90;52.10;;;;;;5019906;28;20108;-72
2021/05/26 08:58:24;;;;;;;7.30;5.50;;;26.10;52.30;;;;;;5018824;28;20045;-72
2021/05/26 09:00:50;;;;;;;6.90;5.38;;;26.10;51.80;;;;;;5018310;28;20043;-73
2021/05/26 09:03:16;;;;;;;7.00;5.38;;;26.20;51.90;;;;;;5011512;28;20037;-72
2021/05/26 09:05:44;;;;;;;6.35;5.05;;;26.20;51.60;;;;;;5010378;28;20052;-73
2021/05/26 09:08:18;;;;;;;5.50;4.80;;;26.20;51.60;;;;;;5023822;28;20029;-75
2021/05/26 09:10:47;;;;;;;6.70;5.38;;;26.30;51.40;;;;;;5024114;28;20116;-74
2021/05/26 09:13:36;;;;;;;5.85;4.72;;;26.40;51.10;;;;;;5017678;28;20616;-74
2021/05/26 09:16:06;;;;;;;6.07;5.00;;;26.40;51.70;;;;;;5023676;28;20038;-71
2021/05/26 09:19:03;;;;;;;7.63;5.15;;;26.40;51.00;;;;;;5026840;28;20037;-73
2021/05/26 09:21:52;;;;;;;7.82;5.40;;;26.40;51.00;;;;;;5024658;28;20049;-72
2021/05/26 09:24:20;;;;;;;12.38;5.90;;;26.40;51.60;;;;;;5019627;28;20044;-72
2021/05/26 09:27:00;;;;;;;9.00;5.15;;;26.50;51.60;;;;;;5016012;28;20040;-71
2021/05/26 09:29:31;;;;;;;9.93;6.15;;;26.50;50.80;;;;;;5002574;28;20617;-73
2021/05/26 09:32:14;;;;;;;5.78;4.55;;;26.50;51.10;;;;;;5016615;28;20048;-71
2021/05/26 09:34:43;;;;;;;5.32;4.82;;;26.50;51.10;;;;;;5000694;28;22255;-72
2021/05/26 09:37:23;;;;;;;6.22;5.43;;;26.70;50.70;;;;;;5014722;28;20024;-71
2021/05/26 09:39:54;;;;;;;5.38;4.72;;;26.80;49.00;;;;;;5025647;28;20114;-72
2021/05/26 09:42:45;;;;;;;4.70;4.20;;;26.90;48.80;;;;;;5023035;28;20434;-72
2021/05/26 09:45:26;;;;;;;4.97;4.47;;;26.90;48.80;;;;;;5003875;28;20103;-70
2021/05/26 09:47:54;;;;;;;4.70;4.20;;;26.80;48.60;;;;;;5022879;28;20029;-71
2021/05/26 09:50:35;;;;;;;6.05;4.75;;;26.70;48.60;;;;;;5015445;28;20116;-73
2021/05/26 09:53:19;;;;;;;5.53;4.35;;;26.70;48.80;;;;;;5009212;28;20038;-72
2021/05/26 09:55:46;;;;;;;5.15;4.65;;;26.70;49.10;;;;;;5012709;28;20030;-73
2021/05/26 09:58:13;;;;;;;5.70;4.45;;;26.70;49.30;;;;;;4994194;28;20160;-72
2021/05/26 10:00:41;;;;;;;4.70;4.18;;;26.80;49.40;;;;;;5010408;28;20044;-74
2021/05/26 10:03:08;;;;;;;5.63;5.13;;;26.90;49.40;;;;;;5013333;28;20106;-72
2021/05/26 10:05:34;;;;;;;6.03;5.43;;;27.00;49.50;;;;;;5012025;28;20029;-72
2021/05/26 10:08:04;;;;;;;6.13;4.18;;;27.10;49.00;;;;;;5000622;28;20049;-72
2021/05/26 10:10:31;;;;;;;6.75;5.25;;;27.10;48.30;;;;;;5019782;28;20036;-72
2021/05/26 10:13:00;;;;;;;5.93;4.30;;;27.20;48.70;;;;;;5018553;28;20033;-72
2021/05/26 10:15:28;;;;;;;5.13;4.63;;;27.40;48.40;;;;;;5019070;28;20068;-72
2021/05/26 10:17:58;;;;;;;5.25;4.45;;;27.40;48.30;;;;;;5024298;28;20041;-73
2021/05/26 10:20:33;;;;;;;6.63;5.45;;;27.20;48.70;;;;;;5024017;28;20045;-72
2021/05/26 10:23:04;;;;;;;5.78;4.82;;;27.20;48.70;;;;;;5011909;28;20064;-72
2021/05/26 10:25:30;;;;;;;8.23;4.15;;;27.20;47.60;;;;;;5028852;28;20053;-72
2021/05/26 10:27:57;;;;;;;4.82;4.28;;;27.30;47.40;;;;;;5027037;28;20033;-72
2021/05/26 10:30:28;;;;;;;6.15;4.22;;;27.40;47.60;;;;;;5024560;28;20032;-72
2021/05/26 10:32:56;;;;;;;6.30;4.28;;;27.50;48.00;;;;;;5023160;28;20032;-71
2021/05/26 10:35:57;;;;;;;5.38;4.30;;;27.70;47.80;;;;;;5027561;28;20033;-72
2021/05/26 10:38:23;;;;;;;5.03;4.10;;;27.80;47.00;;;;;;4997152;28;20051;-72
2021/05/26 10:40:59;;;;;;;8.07;5.80;;;27.60;46.70;;;;;;5027121;28;20029;-73
2021/05/26 10:43:26;;;;;;;6.25;5.65;;;27.50;47.70;;;;;;5028004;28;20025;-72
2021/05/26 10:45:54;;;;;;;4.78;4.25;;;27.50;47.60;;;;;;5029644;28;20144;-72
2021/05/26 10:48:38;;;;;;;5.03;4.05;;;27.40;48.10;;;;;;5028657;28;20055;-72
2021/05/26 10:51:04;;;;;;;4.60;4.10;;;27.50;47.60;;;;;;5021921;28;20699;-73
2021/05/26 10:53:38;;;;;;;5.15;4.40;;;27.60;47.30;;;;;;5028059;28;20021;-72
2021/05/26 10:56:04;;;;;;;4.15;3.75;;;27.80;46.30;;;;;;5025992;28;20064;-73
2021/05/26 10:58:42;;;;;;;5.05;4.20;;;27.80;46.60;;;;;;5022876;28;20174;-73
2021/05/26 11:01:11;;;;;;;6.05;4.40;;;27.90;46.30;;;;;;5022084;28;20040;-73
2021/05/26 11:03:44;;;;;;;4.68;4.20;;;28.00;46.20;;;;;;5025821;28;20021;-74
2021/05/26 11:06:13;;;;;;;4.15;3.60;;;28.00;45.90;;;;;;5020095;28;20051;-71
2021/05/26 11:08:47;;;;;;;4.68;3.70;;;28.00;45.90;;;;;;5025366;28;20103;-77
2021/05/26 11:11:21;;;;;;;3.75;3.38;;;28.00;45.80;;;;;;5020396;28;20083;-75
2021/05/26 11:14:06;;;;;;;4.30;3.88;;;28.10;45.20;;;;;;5005734;28;20137;-74
2021/05/26 11:16:41;;;;;;;5.43;3.30;;;28.10;44.70;;;;;;5024303;28;20124;-71
2021/05/26 11:19:27;;;;;;;6.25;4.00;;;28.20;46.20;;;;;;5005843;28;21137;-73
2021/05/26 11:22:02;;;;;;;3.80;3.42;;;28.50;45.40;;;;;;5016801;28;20854;-74
2021/05/26 11:24:33;;;;;;;4.13;3.38;;;28.70;43.90;;;;;;5019254;28;20724;-72
2021/05/26 11:26:59;;;;;;;3.83;3.47;;;28.70;44.20;;;;;;5019695;28;20139;-73
2021/05/26 11:29:29;;;;;;;4.47;3.75;;;28.70;43.60;;;;;;5013884;28;20079;-72
2021/05/26 11:32:04;;;;;;;4.70;3.42;;;28.40;43.90;;;;;;5019298;28;20021;-74
2021/05/26 11:34:30;;;;;;;6.28;5.22;;;28.40;44.20;;;;;;5017599;28;20099;-72
2021/05/26 11:36:59;;;;;;;5.15;4.20;;;28.30;44.10;;;;;;5001308;28;20123;-74
2021/05/26 11:39:29;;;;;;;4.38;3.30;;;28.40;43.90;;;;;;5010542;28;20025;-74
2021/05/26 11:42:16;;;;;;;5.00;4.05;;;28.40;43.90;;;;;;5014512;28;20050;-73
2021/05/26 11:44:52;;;;;;;6.15;3.80;;;28.40;44.00;;;;;;5024662;28;20057;-74
2021/05/26 11:47:36;;;;;;;4.15;3.15;;;28.50;42.70;;;;;;5024597;28;20039;-73
2021/05/26 11:50:26;;;;;;;5.00;3.08;;;28.50;43.60;;;;;;5027718;28;20036;-72
2021/05/26 11:53:01;;;;;;;4.15;3.35;;;28.50;43.50;;;;;;5004076;28;20037;-73
2021/05/26 11:55:27;;;;;;;5.88;3.20;;;28.50;42.90;;;;;;5012613;28;20084;-74
2021/05/26 11:57:54;;;;;;;4.25;2.90;;;28.50;42.70;;;;;;5012382;28;20132;-74
2021/05/26 12:00:28;;;;;;;3.15;2.83;;;28.50;42.70;;;;;;5023506;28;20469;-73
2021/05/26 12:03:09;;;;;;;4.47;3.13;;;28.30;43.10;;;;;;4998673;28;20076;-73
2021/05/26 12:05:52;;;;;;;4.72;3.63;;;28.50;43.30;;;;;;5020936;28;20021;-74
2021/05/26 12:08:20;;;;;;;4.35;2.97;;;28.60;42.30;;;;;;5002066;28;20833;-73
2021/05/26 12:11:08;;;;;;;4.30;2.90;;;28.60;42.70;;;;;;5018184;28;20060;-75
2021/05/26 12:13:41;;;;;;;3.33;2.45;;;28.50;41.40;;;;;;5020076;28;20061;-76
2021/05/26 12:16:13;;;;;;;3.40;2.80;;;28.30;41.20;;;;;;4999781;28;20790;-73
2021/05/26 12:18:48;;;;;;;3.70;2.50;;;28.10;41.70;;;;;;5020728;28;20082;-74
2021/05/26 12:21:15;;;;;;;3.05;2.55;;;28.10;41.30;;;;;;5002840;28;20080;-74
2021/05/26 12:23:44;;;;;;;2.83;2.55;;;28.00;41.80;;;;;;5019658;28;20025;-73
2021/05/26 12:26:31;;;;;;;3.90;3.17;;;28.20;41.80;;;;;;5017198;28;20116;-75
2021/05/26 12:28:58;;;;;;;3.17;2.72;;;28.30;42.50;;;;;;5006602;28;20482;-74
2021/05/26 12:31:28;;;;;;;4.25;2.58;;;28.50;41.90;;;;;;5027560;28;20029;-75
2021/05/26 12:33:55;;;;;;;3.72;2.75;;;28.70;41.70;;;;;;5022845;28;20082;-74
2021/05/26 12:36:24;;;;;;;2.80;2.60;;;28.90;41.30;;;;;;5011756;28;20037;-74
2021/05/26 12:39:01;;;;;;;4.18;2.75;;;29.10;40.40;;;;;;5022385;28;20052;-74
2021/05/26 12:41:32;;;;;;;2.70;2.50;;;29.20;40.20;;;;;;5022122;28;20083;-73
2021/05/26 12:44:08;;;;;;;3.90;2.40;;;29.20;40.50;;;;;;5017568;28;20042;-74
2021/05/26 12:46:34;;;;;;;2.60;2.40;;;29.30;40.20;;;;;;5019927;28;20416;-74
2021/05/26 12:49:00;;;;;;;5.60;2.70;;;29.30;40.00;;;;;;5018336;28;20025;-72
2021/05/26 12:51:26;;;;;;;3.17;2.83;;;29.10;40.40;;;;;;5003622;28;20178;-75